createdAt,value
2022-10-13T00:01:09.591Z,54.10
2022-10-13T00:03:47.491Z,54.90
2022-10-13T00:06:29.282Z,54.40
2022-10-13T00:09:06.107Z,55.40
2022-10-13T00:11:38.677Z,54.60
2022-10-13T00:14:10.403Z,52.60
2022-10-13T00:16:45.530Z,54.50
2022-10-13T00:19:15.290Z,53.90
2022-10-13T00:21:50.890Z,52.60
2022-10-13T00:24:29.496Z,50.70
2022-10-13T00:27:09.104Z,49.90
2022-10-13T00:29:40.361Z,48.90
2022-10-13T00:32:08.918Z,50.50
2022-10-13T00:34:39.066Z,50.80
2022-10-13T00:37:07.312Z,50.90
2022-10-13T00:39:35.294Z,51.70
2022-10-13T00:42:08.116Z,51.20
2022-10-13T00:45:13.174Z,52.50
2022-10-13T00:47:44.496Z,52.20
2022-10-13T00:50:15.897Z,53.30
2022-10-13T00:52:48.209Z,54.10
2022-10-13T00:55:21.345Z,52.50
2022-10-13T00:58:05.739Z,50.80
2022-10-13T01:00:46.148Z,51.60
2022-10-13T01:03:24.903Z,53.60
2022-10-13T01:06:03.032Z,51.60
2022-10-13T01:08:40.927Z,51.90
2022-10-13T01:11:47.857Z,51.60
2022-10-13T01:14:30.405Z,51.10
2022-10-13T01:17:07.104Z,51.10
2022-10-13T01:20:16.172Z,51.40
2022-10-13T01:26:39.651Z,51.10
2022-10-13T01:29:50.783Z,50.50
2022-10-13T01:33:18.856Z,51.30
2022-10-13T01:36:09.948Z,51.30
2022-10-13T01:39:05.296Z,52.20
2022-10-13T01:41:40.288Z,52.40
2022-10-13T01:44:22.031Z,52.30
2022-10-13T01:46:56.977Z,52.30
2022-10-13T01:49:34.796Z,52.30
2022-10-13T01:52:08.202Z,52.50
2022-10-13T01:54:39.876Z,52.50
2022-10-13T01:57:36.281Z,52.40
2022-10-13T02:00:09.540Z,53.50
2022-10-13T02:03:01.038Z,53.10
2022-10-13T02:06:14.363Z,53.40
2022-10-13T02:08:51.271Z,53.30
2022-10-13T02:11:41.461Z,53.30
2022-10-13T02:14:35.859Z,53.30
2022-10-13T02:17:51.645Z,53.50
2022-10-13T02:21:06.926Z,52.30
2022-10-13T02:24:06.091Z,53.70
2022-10-13T02:27:05.835Z,53.00
2022-10-13T02:30:10.935Z,53.30
2022-10-13T02:40:48.975Z,53.30
2022-10-13T02:45:05.621Z,53.80
2022-10-13T02:48:15.002Z,53.80
2022-10-13T02:51:42.718Z,53.50
2022-10-13T02:55:02.640Z,53.20
2022-10-13T02:58:46.167Z,52.60
2022-10-13T03:05:33.249Z,52.70
2022-10-13T03:15:15.316Z,53.60
2022-10-13T03:18:54.132Z,54.70
2022-10-13T03:21:46.247Z,53.50
2022-10-13T03:24:27.588Z,53.50
2022-10-13T03:32:40.806Z,53.40
2022-10-13T03:45:10.565Z,53.20
2022-10-13T03:48:45.925Z,53.30
2022-10-13T03:52:15.814Z,52.60
2022-10-13T03:58:45.188Z,51.40
2022-10-13T04:08:48.272Z,54.00
2022-10-13T04:17:25.474Z,57.70
2022-10-13T04:44:31.686Z,56.00
2022-10-13T04:53:47.493Z,55.60
2022-10-13T05:05:21.568Z,55.80
2022-10-13T05:07:50.262Z,56.60
2022-10-13T05:10:21.884Z,57.10
2022-10-13T05:12:54.981Z,56.50
2022-10-13T05:15:26.619Z,57.10
2022-10-13T05:17:55.843Z,57.00
2022-10-13T05:20:24.514Z,57.60
2022-10-13T05:22:53.054Z,58.00
2022-10-13T05:25:21.488Z,58.60
2022-10-13T05:27:51.790Z,59.30
2022-10-13T05:30:20.452Z,58.00
2022-10-13T05:32:54.826Z,57.70
2022-10-13T05:35:27.225Z,57.40
2022-10-13T05:37:59.699Z,57.10
2022-10-13T05:40:34.932Z,56.40
2022-10-13T05:43:06.264Z,56.30
2022-10-13T05:45:35.869Z,56.20
2022-10-13T05:48:04.577Z,56.20
2022-10-13T05:50:33.429Z,56.80
2022-10-13T05:53:02.698Z,57.50
2022-10-13T05:55:31.446Z,56.70
2022-10-13T05:58:00.614Z,57.40
2022-10-13T06:00:31.164Z,57.00
2022-10-13T06:03:06.419Z,58.90
2022-10-13T06:05:35.325Z,59.90
2022-10-13T06:08:04.256Z,60.10
2022-10-13T06:10:38.195Z,60.90
2022-10-13T06:13:07.003Z,60.90
2022-10-13T06:15:52.050Z,61.10
2022-10-13T06:18:24.424Z,61.20
2022-10-13T06:20:55.782Z,61.10
2022-10-13T06:23:24.359Z,61.40
2022-10-13T06:25:54.421Z,61.80
2022-10-13T06:28:31.026Z,62.60
2022-10-13T06:32:12.265Z,62.20
2022-10-13T06:53:57.296Z,60.80
2022-10-13T06:57:02.814Z,61.30
2022-10-13T07:02:30.437Z,61.80
2022-10-13T07:04:55.986Z,61.80
2022-10-13T07:07:59.378Z,61.50
2022-10-13T07:10:49.292Z,61.80
2022-10-13T07:13:19.641Z,61.70
2022-10-13T07:16:14.513Z,61.70
2022-10-13T07:18:44.504Z,61.30
2022-10-13T07:21:13.569Z,62.00
2022-10-13T07:23:54.230Z,62.30
2022-10-13T07:27:12.532Z,62.30
2022-10-13T07:29:48.702Z,61.70
2022-10-13T07:32:35.365Z,61.30
2022-10-13T07:35:52.355Z,61.40
2022-10-13T07:38:31.157Z,61.40
2022-10-13T07:41:09.445Z,61.30
2022-10-13T07:43:39.908Z,61.50
2022-10-13T07:46:11.920Z,61.50
2022-10-13T07:48:40.560Z,61.40
2022-10-13T07:51:12.159Z,60.80
2022-10-13T07:53:47.779Z,60.80
2022-10-13T07:56:19.920Z,60.40
2022-10-13T07:58:51.833Z,60.10
2022-10-13T08:01:39.391Z,60.70
2022-10-13T08:26:57.340Z,61.40
2022-10-13T08:32:31.929Z,60.70
2022-10-13T08:39:44.809Z,61.70
2022-10-13T08:43:30.610Z,61.10
2022-10-13T08:47:28.649Z,61.30
2022-10-13T08:51:56.939Z,60.70
2022-10-13T08:54:43.036Z,61.10
2022-10-13T08:57:57.754Z,61.10
2022-10-13T09:01:27.206Z,61.30
2022-10-13T09:05:01.749Z,61.30
2022-10-13T09:10:39.812Z,62.20
2022-10-13T09:13:20.817Z,62.60
2022-10-13T09:15:58.518Z,62.20
2022-10-13T09:19:08.341Z,63.10
2022-10-13T09:22:19.991Z,63.80
2022-10-13T09:25:41.941Z,63.20
2022-10-13T09:32:37.291Z,65.20
2022-10-13T09:35:39.420Z,65.50
2022-10-13T09:38:15.189Z,65.60
2022-10-13T09:40:49.696Z,64.80
2022-10-13T09:43:40.592Z,64.00
2022-10-13T09:46:42.130Z,64.20
2022-10-13T09:49:40.555Z,63.70
2022-10-13T09:52:26.195Z,63.90
2022-10-13T09:55:36.308Z,63.40
2022-10-13T09:58:38.223Z,63.40
2022-10-13T10:01:44.204Z,63.10
2022-10-13T10:13:52.630Z,61.10
2022-10-13T10:31:38.653Z,59.70
2022-10-13T10:38:36.371Z,59.10
2022-10-13T10:47:03.292Z,60.60
2022-10-13T10:50:24.460Z,60.20
2022-10-13T10:53:21.887Z,60.20
2022-10-13T11:08:16.121Z,60.60
2022-10-13T11:11:50.468Z,61.10
2022-10-13T11:14:55.811Z,60.90
2022-10-13T11:25:42.365Z,60.90
2022-10-13T11:29:11.057Z,61.40
2022-10-13T11:33:15.057Z,61.60
2022-10-13T11:37:41.235Z,62.60
2022-10-13T11:41:24.397Z,62.80
2022-10-13T11:44:09.317Z,63.40
2022-10-13T11:47:08.602Z,61.70
2022-10-13T11:50:23.804Z,61.80
2022-10-13T11:53:37.969Z,62.70
2022-10-13T12:09:50.549Z,60.40
2022-10-13T12:12:51.866Z,59.10
2022-10-13T12:19:50.891Z,59.20
2022-10-13T12:22:46.820Z,56.60
2022-10-13T12:26:00.668Z,58.20
2022-10-13T12:56:40.018Z,57.10
2022-10-13T12:59:28.217Z,57.70
2022-10-13T13:02:39.917Z,57.50
2022-10-13T13:05:51.642Z,56.80
2022-10-13T13:08:36.670Z,58.30
2022-10-13T13:11:29.207Z,59.30
2022-10-13T13:14:49.941Z,58.80
2022-10-13T13:20:52.061Z,58.50
2022-10-13T13:23:48.169Z,58.80
2022-10-13T13:26:45.496Z,58.60
2022-10-13T13:29:18.735Z,58.10
2022-10-13T13:32:04.913Z,58.90
2022-10-13T13:35:18.806Z,58.80
2022-10-13T13:38:03.305Z,58.60
2022-10-13T13:40:36.894Z,56.80
2022-10-13T13:43:21.257Z,56.70
2022-10-13T13:46:30.917Z,56.60
2022-10-13T13:49:12.225Z,56.90
2022-10-13T13:52:01.975Z,57.60
2022-10-13T13:55:22.206Z,57.80
2022-10-13T13:58:18.246Z,57.50
2022-10-13T14:01:05.924Z,57.90
2022-10-13T14:07:22.910Z,59.90
2022-10-13T14:09:53.806Z,59.70
2022-10-13T14:12:23.969Z,59.80
2022-10-13T14:14:58.957Z,60.30
2022-10-13T14:17:30.977Z,60.30
2022-10-13T14:20:03.304Z,60.00
2022-10-13T14:22:32.500Z,60.40
2022-10-13T14:25:10.194Z,60.50
2022-10-13T14:27:39.129Z,61.20
2022-10-13T14:30:11.199Z,60.80
2022-10-13T14:32:43.408Z,59.70
2022-10-13T14:35:16.577Z,60.80
2022-10-13T14:37:56.614Z,62.40
2022-10-13T14:40:41.339Z,62.00
2022-10-13T14:43:16.421Z,61.40
2022-10-13T14:46:05.542Z,61.10
2022-10-13T14:48:53.196Z,60.50
2022-10-13T14:51:45.947Z,60.20
2022-10-13T14:54:18.033Z,59.40
2022-10-13T14:56:55.363Z,59.40
2022-10-13T14:59:24.383Z,59.40
2022-10-13T15:02:01.400Z,58.90
2022-10-13T15:05:24.423Z,58.00
2022-10-13T15:07:58.302Z,57.00
2022-10-13T15:10:59.613Z,56.80
2022-10-13T15:13:30.253Z,56.90
2022-10-13T15:16:01.332Z,56.20
2022-10-13T15:18:32.161Z,56.00
2022-10-13T15:21:12.051Z,56.00
2022-10-13T15:23:53.695Z,56.60
2022-10-13T15:26:25.967Z,57.00
2022-10-13T15:29:03.157Z,56.20
2022-10-13T15:31:44.071Z,56.40
2022-10-13T15:34:50.538Z,56.60
2022-10-13T15:38:20.273Z,57.10
2022-10-13T15:41:15.949Z,56.20
2022-10-13T15:43:51.904Z,56.20
2022-10-13T15:46:24.446Z,56.30
2022-10-13T15:48:55.377Z,56.50
2022-10-13T15:51:27.242Z,56.70
2022-10-13T15:53:58.572Z,55.70
2022-10-13T15:56:39.505Z,56.20
2022-10-13T15:59:08.462Z,56.90
2022-10-13T16:01:37.254Z,55.80
2022-10-13T16:04:28.214Z,55.70
2022-10-13T16:07:15.652Z,56.60
2022-10-13T16:18:04.274Z,58.80
2022-10-13T16:20:35.237Z,58.00
2022-10-13T16:23:09.880Z,57.70
2022-10-13T16:25:40.684Z,57.90
2022-10-13T16:28:09.648Z,57.60
2022-10-13T16:30:49.035Z,57.70
2022-10-13T16:33:30.598Z,57.90
2022-10-13T16:36:09.961Z,57.60
2022-10-13T16:39:05.795Z,57.70
2022-10-13T16:41:35.052Z,58.00
2022-10-13T16:44:06.868Z,57.00
2022-10-13T16:46:36.194Z,56.20
2022-10-13T16:49:19.464Z,57.30
2022-10-13T16:51:48.339Z,58.80
2022-10-13T16:54:18.923Z,57.50
2022-10-13T16:56:51.597Z,57.20
2022-10-13T16:59:23.754Z,56.80
2022-10-13T17:07:29.949Z,58.70
2022-10-13T17:26:54.509Z,60.80
2022-10-13T17:37:50.262Z,60.00
2022-10-13T17:41:22.534Z,60.50
2022-10-13T17:44:00.617Z,60.80
2022-10-13T17:46:52.710Z,60.70
2022-10-13T17:49:29.570Z,61.40
2022-10-13T17:52:03.378Z,61.90
2022-10-13T17:54:32.792Z,62.50
2022-10-13T17:57:05.714Z,62.60
2022-10-13T18:03:35.825Z,63.30
2022-10-13T18:06:22.852Z,63.40
2022-10-13T18:09:27.862Z,63.40
2022-10-13T18:12:45.591Z,63.80
2022-10-13T18:15:45.590Z,63.60
2022-10-13T18:18:22.813Z,63.90
2022-10-13T18:21:56.286Z,63.30
2022-10-13T18:24:52.224Z,63.50
2022-10-13T18:27:34.090Z,63.50
2022-10-13T18:30:05.816Z,63.30
2022-10-13T18:32:52.102Z,63.90
2022-10-13T18:36:17.375Z,64.10
2022-10-13T18:38:51.112Z,63.80
2022-10-13T18:41:24.364Z,63.50
2022-10-13T18:43:58.736Z,63.50
2022-10-13T18:46:38.416Z,63.50
2022-10-13T18:49:17.045Z,63.40
2022-10-13T18:51:53.896Z,63.40
2022-10-13T18:54:27.075Z,63.30
2022-10-13T18:57:12.607Z,63.60
2022-10-13T19:00:02.196Z,63.80
2022-10-13T19:02:38.784Z,64.00
2022-10-13T19:05:56.963Z,63.40
2022-10-13T19:09:34.666Z,64.10
2022-10-13T19:29:01.364Z,63.40
2022-10-13T19:31:58.423Z,63.30
2022-10-13T19:34:50.732Z,63.20
2022-10-13T19:42:04.329Z,63.80
2022-10-13T19:45:12.575Z,64.20
2022-10-13T19:48:01.292Z,64.10
2022-10-13T19:50:38.633Z,64.10
2022-10-13T19:54:05.723Z,64.60
2022-10-13T20:24:22.296Z,63.60
2022-10-13T20:26:55.321Z,63.40
2022-10-13T20:29:27.418Z,63.00
2022-10-13T20:32:10.188Z,62.60
2022-10-13T20:34:45.636Z,62.50
2022-10-13T20:37:26.045Z,62.40
2022-10-13T20:40:13.531Z,62.50
2022-10-13T20:42:53.854Z,62.30
2022-10-13T20:45:25.222Z,62.60
2022-10-13T20:48:36.672Z,61.90
2022-10-13T20:51:07.323Z,62.00
2022-10-13T20:53:40.765Z,61.50
2022-10-13T20:56:44.824Z,62.30
2022-10-13T20:59:38.734Z,62.30
2022-10-13T21:02:16.899Z,61.90
2022-10-13T21:04:48.775Z,62.00
2022-10-13T21:07:17.922Z,61.00
2022-10-13T21:09:50.180Z,62.40
2022-10-13T21:27:19.795Z,62.50
2022-10-13T21:50:07.894Z,65.50
2022-10-13T22:24:09.098Z,66.80
2022-10-13T22:27:57.988Z,68.20
